createdAt,value
2023-03-16T00:04:41.030Z,91.50
2023-03-16T00:09:49.184Z,91.50
2023-03-16T00:14:57.927Z,91.40
2023-03-16T00:20:06.135Z,91.40
2023-03-16T00:25:14.659Z,91.30
2023-03-16T00:30:23.408Z,91.20
2023-03-16T00:35:32.621Z,91.20
2023-03-16T00:40:41.495Z,91.40
2023-03-16T00:45:50.224Z,91.50
2023-03-16T00:50:58.477Z,91.50
2023-03-16T00:56:07.362Z,91.60
2023-03-16T01:01:15.608Z,91.60
2023-03-16T01:06:24.138Z,91.70
2023-03-16T01:11:32.610Z,91.70
2023-03-16T01:16:41.699Z,92.00
2023-03-16T01:21:50.464Z,92.10
2023-03-16T01:26:59.131Z,92.10
2023-03-16T01:32:07.879Z,92.20
2023-03-16T01:37:16.598Z,92.20
2023-03-16T01:42:24.847Z,92.30
2023-03-16T01:47:33.914Z,92.30
2023-03-16T01:52:42.142Z,92.30
2023-03-16T01:57:50.733Z,92.20
2023-03-16T02:02:59.246Z,92.20
2023-03-16T02:08:07.929Z,92.20
2023-03-16T02:13:16.232Z,92.40
2023-03-16T02:18:25.201Z,92.40
2023-03-16T02:23:33.764Z,92.40
2023-03-16T02:28:42.415Z,92.50
2023-03-16T02:33:50.751Z,92.60
2023-03-16T02:38:59.686Z,92.60
2023-03-16T02:44:08.122Z,92.70
2023-03-16T02:49:17.196Z,92.80
2023-03-16T02:54:25.596Z,92.80
2023-03-16T02:59:34.827Z,93.00
2023-03-16T03:04:43.182Z,93.00
2023-03-16T03:09:51.618Z,93.10
2023-03-16T03:15:00.215Z,93.10
2023-03-16T03:20:09.179Z,93.10
2023-03-16T03:25:17.573Z,93.00
2023-03-16T03:30:26.562Z,93.00
2023-03-16T03:35:34.663Z,93.00
2023-03-16T03:40:43.940Z,92.90
2023-03-16T03:45:52.498Z,92.90
2023-03-16T03:51:01.275Z,92.90
2023-03-16T03:56:09.772Z,92.90
2023-03-16T04:01:18.609Z,92.80
2023-03-16T04:06:26.732Z,92.80
2023-03-16T04:11:35.554Z,92.90
2023-03-16T04:16:43.850Z,92.90
2023-03-16T04:21:52.564Z,93.00
2023-03-16T04:27:01.155Z,93.10
2023-03-16T04:32:10.111Z,93.40
2023-03-16T04:37:18.754Z,93.60
2023-03-16T04:42:27.730Z,94.00
2023-03-16T04:47:36.074Z,94.20
2023-03-16T04:52:44.648Z,94.40
2023-03-16T04:57:52.942Z,94.60
2023-03-16T05:03:01.632Z,95.00
2023-03-16T05:08:10.338Z,95.00
2023-03-16T05:13:19.503Z,95.10
2023-03-16T05:18:27.940Z,95.20
2023-03-16T05:23:36.514Z,95.40
2023-03-16T05:28:44.465Z,95.40
2023-03-16T05:33:53.549Z,95.50
2023-03-16T05:39:02.548Z,95.40
2023-03-16T05:44:11.822Z,95.40
2023-03-16T05:49:20.169Z,95.30
2023-03-16T05:54:29.157Z,95.30
2023-03-16T05:59:37.579Z,95.30
2023-03-16T06:04:47.746Z,95.10
2023-03-16T06:09:45.777Z,95.10
2023-03-16T06:14:54.459Z,95.20
2023-03-16T06:20:04.011Z,94.90
2023-03-16T06:25:12.565Z,94.60
2023-03-16T06:30:23.538Z,94.20
2023-03-16T06:35:21.973Z,93.90
2023-03-16T06:40:31.549Z,93.60
2023-03-16T06:45:40.761Z,93.10
2023-03-16T06:50:52.285Z,92.70
2023-03-16T06:55:51.693Z,92.40
2023-03-16T07:01:00.218Z,92.20
2023-03-16T07:06:10.156Z,91.90
2023-03-16T07:11:18.415Z,91.80
2023-03-16T07:16:29.531Z,91.50
2023-03-16T07:21:28.773Z,91.40
2023-03-16T07:26:38.191Z,91.10
2023-03-16T07:31:46.779Z,91.20
2023-03-16T07:36:56.881Z,91.10
2023-03-16T07:41:56.673Z,90.80
2023-03-16T07:47:06.792Z,90.60
2023-03-16T07:52:07.295Z,90.50
2023-03-16T07:57:05.356Z,90.50
2023-03-16T08:02:13.655Z,90.10
2023-03-16T08:07:23.523Z,90.00
2023-03-16T08:12:33.463Z,89.70
2023-03-16T08:17:43.692Z,89.50
2023-03-16T08:22:43.073Z,89.50
2023-03-16T08:27:53.553Z,88.70
2023-03-16T08:32:53.141Z,88.10
2023-03-16T08:38:04.090Z,88.00
2023-03-16T08:43:02.012Z,87.40
2023-03-16T08:48:11.891Z,87.60
2023-03-16T08:53:21.805Z,87.10
2023-03-16T08:58:31.590Z,87.00
2023-03-16T09:03:41.733Z,87.40
2023-03-16T09:08:40.859Z,87.80
2023-03-16T09:13:52.817Z,87.60
2023-03-16T09:19:00.203Z,87.40
2023-03-16T09:24:09.812Z,86.90
2023-03-16T09:29:19.680Z,86.90
2023-03-16T09:34:29.949Z,87.00
2023-03-16T09:39:38.781Z,86.40
2023-03-16T09:44:36.912Z,86.50
2023-03-16T09:49:45.512Z,86.40
2023-03-16T09:54:54.647Z,86.00
2023-03-16T10:00:03.934Z,86.30
2023-03-16T10:05:12.625Z,86.20
2023-03-16T10:10:22.935Z,86.20
2023-03-16T10:15:21.257Z,86.30
2023-03-16T10:20:30.707Z,86.40
2023-03-16T10:25:39.048Z,86.20
2023-03-16T10:30:49.988Z,85.90
2023-03-16T10:35:48.166Z,86.20
2023-03-16T10:40:56.951Z,85.90
2023-03-16T10:46:05.901Z,85.50
2023-03-16T10:51:15.840Z,84.80
2023-03-16T10:56:24.036Z,85.40
2023-03-16T11:01:33.771Z,84.80
2023-03-16T11:06:42.752Z,85.00
2023-03-16T11:11:51.185Z,84.70
2023-03-16T11:17:00.264Z,84.50
2023-03-16T11:22:08.833Z,84.60
2023-03-16T11:27:17.886Z,85.20
2023-03-16T11:32:29.864Z,85.50
2023-03-16T11:37:27.645Z,85.60
2023-03-16T11:42:38.661Z,85.90
2023-03-16T11:47:37.014Z,85.30
2023-03-16T11:52:47.882Z,85.10
2023-03-16T11:57:47.200Z,85.60
2023-03-16T12:02:55.967Z,85.80
2023-03-16T12:08:05.597Z,85.80
2023-03-16T12:13:14.133Z,86.80
2023-03-16T12:18:22.124Z,87.10
2023-03-16T12:23:31.818Z,86.00
2023-03-16T12:28:41.464Z,86.30
2023-03-16T12:33:50.537Z,86.60
2023-03-16T12:39:01.539Z,85.90
2023-03-16T12:44:00.949Z,86.10
2023-03-16T12:49:10.987Z,84.70
2023-03-16T12:54:15.063Z,84.30
2023-03-16T12:59:13.958Z,82.50
2023-03-16T13:04:24.123Z,80.70
2023-03-16T13:09:32.367Z,79.00
2023-03-16T13:14:42.401Z,77.20
2023-03-16T13:19:41.621Z,75.90
2023-03-16T13:24:51.523Z,74.40
2023-03-16T13:30:01.146Z,72.30
2023-03-16T13:35:11.420Z,68.50
2023-03-16T13:40:09.821Z,66.20
2023-03-16T13:45:20.537Z,64.50
2023-03-16T13:50:19.776Z,64.00
2023-03-16T13:55:28.213Z,64.20
2023-03-16T14:00:36.552Z,62.60
2023-03-16T14:05:45.062Z,62.20
2023-03-16T14:10:55.523Z,61.90
2023-03-16T14:15:56.765Z,61.80
2023-03-16T14:20:55.662Z,62.20
2023-03-16T14:26:04.866Z,62.90
2023-03-16T14:31:14.484Z,63.10
2023-03-16T14:36:23.889Z,62.90
2023-03-16T14:41:32.847Z,62.80
2023-03-16T14:46:42.743Z,63.20
2023-03-16T14:51:51.725Z,63.90
2023-03-16T14:57:01.284Z,64.00
2023-03-16T15:02:11.197Z,64.80
2023-03-16T15:07:21.191Z,67.20
2023-03-16T15:12:31.712Z,69.10
2023-03-16T15:17:31.361Z,70.70
2023-03-16T15:22:39.658Z,71.20
2023-03-16T15:27:49.387Z,72.30
2023-03-16T15:32:58.074Z,73.40
2023-03-16T15:38:07.508Z,74.00
2023-03-16T15:43:15.316Z,74.70
2023-03-16T15:48:25.204Z,75.60
2023-03-16T15:53:30.921Z,76.30
2023-03-16T15:58:36.243Z,76.80
2023-03-16T16:03:44.647Z,77.30
2023-03-16T16:08:56.653Z,77.30
2023-03-16T16:13:54.598Z,77.40
2023-03-16T16:19:04.057Z,77.50
2023-03-16T16:24:14.280Z,77.50
2023-03-16T16:29:12.637Z,77.40
2023-03-16T16:34:21.758Z,77.90
2023-03-16T16:39:31.256Z,77.70
2023-03-16T16:44:39.541Z,77.70
2023-03-16T16:49:50.159Z,78.00
2023-03-16T16:54:48.405Z,77.40
2023-03-16T16:59:59.660Z,76.60
2023-03-16T17:04:57.492Z,76.30
2023-03-16T17:10:07.766Z,76.70
2023-03-16T17:15:05.917Z,77.10
2023-03-16T17:20:16.154Z,78.00
2023-03-16T17:25:14.275Z,78.40
2023-03-16T17:30:22.630Z,78.70
2023-03-16T17:35:31.984Z,79.20
2023-03-16T17:40:42.423Z,79.90
2023-03-16T17:45:45.598Z,80.30
2023-03-16T17:50:46.732Z,80.40
2023-03-16T17:55:48.447Z,80.60
2023-03-16T18:00:49.458Z,81.20
2023-03-16T18:05:52.737Z,81.40
2023-03-16T18:10:51.660Z,81.40
2023-03-16T18:16:01.335Z,81.60
2023-03-16T18:21:09.798Z,82.00
2023-03-16T18:26:18.683Z,82.10
2023-03-16T18:31:28.730Z,82.30
2023-03-16T18:36:38.037Z,82.50
2023-03-16T18:41:47.741Z,82.80
2023-03-16T18:46:56.318Z,83.10
2023-03-16T18:52:04.967Z,83.20
2023-03-16T18:57:14.501Z,83.30
2023-03-16T19:02:24.431Z,83.40
2023-03-16T19:07:27.797Z,83.50
2023-03-16T19:12:37.113Z,83.30
2023-03-16T19:17:46.896Z,83.40
2023-03-16T19:22:58.008Z,83.50
2023-03-16T19:27:57.602Z,83.50
2023-03-16T19:33:08.014Z,83.30
2023-03-16T19:38:06.418Z,83.20
2023-03-16T19:43:16.411Z,83.50
2023-03-16T19:48:24.979Z,83.80
2023-03-16T19:53:37.406Z,83.90
2023-03-16T19:58:36.498Z,84.10
2023-03-16T20:03:46.141Z,84.40
2023-03-16T20:08:55.963Z,84.40
2023-03-16T20:14:05.650Z,84.40
2023-03-16T20:19:13.885Z,84.60
2023-03-16T20:24:23.549Z,84.70
2023-03-16T20:29:32.092Z,84.40
2023-03-16T20:34:41.713Z,84.50
2023-03-16T20:39:50.883Z,84.20
2023-03-16T20:45:00.351Z,83.80
2023-03-16T20:50:08.532Z,84.20
2023-03-16T20:55:18.071Z,84.70
2023-03-16T21:00:27.681Z,84.90
2023-03-16T21:05:37.028Z,85.30
2023-03-16T21:10:46.859Z,85.50
2023-03-16T21:15:56.301Z,85.80
2023-03-16T21:21:00.652Z,86.00
2023-03-16T21:26:10.994Z,86.40
2023-03-16T21:31:09.580Z,87.60
2023-03-16T21:36:18.062Z,87.00
2023-03-16T21:41:27.396Z,86.90
2023-03-16T21:46:36.153Z,87.40
2023-03-16T21:51:44.262Z,87.80
2023-03-16T21:56:54.803Z,88.20
2023-03-16T22:02:01.597Z,88.60
2023-03-16T22:07:02.795Z,89.00
2023-03-16T22:12:10.658Z,88.80
2023-03-16T22:17:20.435Z,88.60
2023-03-16T22:22:30.559Z,88.50
2023-03-16T22:27:29.302Z,88.50
2023-03-16T22:32:38.843Z,88.40
2023-03-16T22:37:48.588Z,88.30
2023-03-16T22:42:58.180Z,88.50
2023-03-16T22:48:06.731Z,88.60
2023-03-16T22:53:15.907Z,88.60
2023-03-16T22:58:25.682Z,88.60
2023-03-16T23:03:35.145Z,88.30
2023-03-16T23:08:46.427Z,87.90
2023-03-16T23:13:44.611Z,87.30
2023-03-16T23:18:56.254Z,86.30
2023-03-16T23:24:03.485Z,85.80
2023-03-16T23:29:02.961Z,85.00
2023-03-16T23:34:11.494Z,84.30
2023-03-16T23:39:21.725Z,83.90
2023-03-16T23:44:20.921Z,83.60
2023-03-16T23:49:32.972Z,83.60
2023-03-16T23:54:30.845Z,83.50
2023-03-16T23:59:40.693Z,83.60
